UAL1384 KICT-KDEN
Flight info
| Callsign | UAL1384 |
|---|---|
| Flight time | 1h 9m |
| Altitude | 38000 |
| Route | KYLER KIISS CLASH5 |
| Aircraft | B737/M-SDE2E3FGHIRWXY/LB1 |
Departure
| Time | 2026-04-20 01:34 |
|---|---|
| Airport | Wichita Dwight D. Eisenhower National Airport (KICT) |
Arrival
| Time | 2026-04-20 02:43 |
|---|---|
| Airport | Denver International Airport (KDEN) |
| Time | Latitude | Longitude | Altitude | Speed | Heading |
|---|---|---|---|---|---|
| 2026-04-20 01:05 | 37.65188 | -97.43085 | 1341 ft | 0 kts | 56° |
| 2026-04-20 01:25 | 37.65181 | -97.43099 | 1341 ft | 3 kts | 62° |
| 2026-04-20 01:25 | 37.65174 | -97.43122 | 1341 ft | 3 kts | 90° |
| 2026-04-20 01:25 | 37.65179 | -97.43142 | 1341 ft | 2 kts | 142° |
| 2026-04-20 01:25 | 37.65183 | -97.43146 | 1341 ft | 0 kts | 150° |
| 2026-04-20 01:29 | 37.65175 | -97.43140 | 1341 ft | 5 kts | 150° |
| 2026-04-20 01:30 | 37.65131 | -97.43144 | 1341 ft | 7 kts | 210° |
| 2026-04-20 01:30 | 37.65103 | -97.43209 | 1341 ft | 11 kts | 264° |
| 2026-04-20 01:30 | 37.65144 | -97.43265 | 1341 ft | 13 kts | 332° |
| 2026-04-20 01:30 | 37.65236 | -97.43333 | 1341 ft | 16 kts | 331° |
| 2026-04-20 01:31 | 37.65331 | -97.43396 | 1341 ft | 15 kts | 331° |
| 2026-04-20 01:31 | 37.65418 | -97.43460 | 1341 ft | 14 kts | 329° |
| 2026-04-20 01:31 | 37.65500 | -97.43519 | 1341 ft | 13 kts | 342° |
| 2026-04-20 01:31 | 37.65587 | -97.43496 | 1341 ft | 13 kts | 20° |
| 2026-04-20 01:32 | 37.65676 | -97.43455 | 1341 ft | 17 kts | 20° |
| 2026-04-20 01:32 | 37.65805 | -97.43395 | 1341 ft | 20 kts | 20° |
| 2026-04-20 01:32 | 37.65936 | -97.43337 | 1341 ft | 19 kts | 20° |
| 2026-04-20 01:32 | 37.66048 | -97.43285 | 1341 ft | 15 kts | 20° |
| 2026-04-20 01:33 | 37.66115 | -97.43285 | 1341 ft | 5 kts | 307° |
| 2026-04-20 01:33 | 37.66120 | -97.43297 | 1341 ft | 0 kts | 291° |
| 2026-04-20 01:33 | 37.66135 | -97.43345 | 1341 ft | 15 kts | 291° |
| 2026-04-20 01:33 | 37.66111 | -97.43407 | 1341 ft | 6 kts | 199° |
| 2026-04-20 01:34 | 37.66065 | -97.43427 | 1341 ft | 14 kts | 199° |
| 2026-04-20 01:34 | 37.65739 | -97.43575 | 1341 ft | 87 kts | 200° |
| 2026-04-20 01:34 | 37.64951 | -97.43942 | 1407 ft | 144 kts | 199° |
| 2026-04-20 01:34 | 37.63945 | -97.44410 | 1981 ft | 162 kts | 199° |
| 2026-04-20 01:35 | 37.62838 | -97.44892 | 2716 ft | 172 kts | 198° |
| 2026-04-20 01:35 | 37.61782 | -97.45351 | 3797 ft | 153 kts | 198° |
| 2026-04-20 01:35 | 37.60750 | -97.45793 | 4496 ft | 160 kts | 198° |
| 2026-04-20 01:35 | 37.59623 | -97.46258 | 4850 ft | 182 kts | 199° |
| 2026-04-20 01:36 | 37.58477 | -97.47127 | 5073 ft | 209 kts | 227° |
| 2026-04-20 01:36 | 37.57973 | -97.48939 | 5401 ft | 237 kts | 265° |
| 2026-04-20 01:36 | 37.58343 | -97.51018 | 5935 ft | 252 kts | 284° |
| 2026-04-20 01:36 | 37.58911 | -97.53190 | 6434 ft | 269 kts | 283° |
| 2026-04-20 01:37 | 37.59483 | -97.55435 | 7564 ft | 265 kts | 283° |
| 2026-04-20 01:37 | 37.60033 | -97.57668 | 8543 ft | 271 kts | 283° |
| 2026-04-20 01:37 | 37.60581 | -97.59962 | 9479 ft | 274 kts | 283° |
| 2026-04-20 01:37 | 37.61120 | -97.62265 | 10524 ft | 273 kts | 283° |
| 2026-04-20 01:38 | 37.61638 | -97.64599 | 11330 ft | 283 kts | 283° |
| 2026-04-20 01:38 | 37.62170 | -97.67066 | 11912 ft | 298 kts | 283° |
| 2026-04-20 01:38 | 37.62705 | -97.69620 | 12733 ft | 304 kts | 283° |
| 2026-04-20 01:38 | 37.63220 | -97.72223 | 13644 ft | 308 kts | 283° |
| 2026-04-20 01:39 | 37.63694 | -97.74863 | 14603 ft | 310 kts | 282° |
| 2026-04-20 01:39 | 37.64139 | -97.77544 | 15565 ft | 314 kts | 282° |
| 2026-04-20 01:39 | 37.64586 | -97.80253 | 16512 ft | 317 kts | 282° |
| 2026-04-20 01:39 | 37.65038 | -97.82989 | 17434 ft | 320 kts | 283° |
| 2026-04-20 01:40 | 37.65492 | -97.85757 | 18330 ft | 324 kts | 283° |
| 2026-04-20 01:40 | 37.65951 | -97.88554 | 19224 ft | 327 kts | 283° |
| 2026-04-20 01:40 | 37.66414 | -97.91381 | 20098 ft | 330 kts | 284° |
| 2026-04-20 01:40 | 37.66880 | -97.94225 | 20950 ft | 333 kts | 284° |
| 2026-04-20 01:41 | 37.67350 | -97.97102 | 21762 ft | 336 kts | 284° |
| 2026-04-20 01:41 | 37.67828 | -98.00044 | 22546 ft | 339 kts | 284° |
| 2026-04-20 01:41 | 37.68304 | -98.02970 | 23292 ft | 342 kts | 283° |
| 2026-04-20 01:41 | 37.68783 | -98.05929 | 24010 ft | 345 kts | 283° |
| 2026-04-20 01:42 | 37.69265 | -98.08909 | 24711 ft | 348 kts | 283° |
| 2026-04-20 01:42 | 37.69750 | -98.11916 | 25377 ft | 351 kts | 283° |
| 2026-04-20 01:42 | 37.70246 | -98.14940 | 26022 ft | 353 kts | 284° |
| 2026-04-20 01:42 | 37.70762 | -98.17981 | 26638 ft | 356 kts | 284° |
| 2026-04-20 01:43 | 37.71277 | -98.21051 | 27229 ft | 358 kts | 284° |
| 2026-04-20 01:43 | 37.71792 | -98.24142 | 27803 ft | 361 kts | 283° |
| 2026-04-20 01:43 | 37.72306 | -98.27259 | 28333 ft | 364 kts | 283° |
| 2026-04-20 01:43 | 37.72818 | -98.30399 | 28874 ft | 366 kts | 283° |
| 2026-04-20 01:44 | 37.73329 | -98.33564 | 29357 ft | 369 kts | 283° |
| 2026-04-20 01:44 | 37.73841 | -98.36750 | 29851 ft | 371 kts | 283° |
| 2026-04-20 01:44 | 37.74353 | -98.39953 | 30322 ft | 374 kts | 283° |
| 2026-04-20 01:44 | 37.74868 | -98.43187 | 30743 ft | 377 kts | 283° |
| 2026-04-20 01:45 | 37.75385 | -98.46443 | 31160 ft | 379 kts | 283° |
| 2026-04-20 01:45 | 37.75902 | -98.49704 | 31686 ft | 378 kts | 283° |
| 2026-04-20 01:45 | 37.76415 | -98.52950 | 32273 ft | 375 kts | 283° |
| 2026-04-20 01:45 | 37.76925 | -98.56178 | 32784 ft | 374 kts | 283° |
| 2026-04-20 01:46 | 37.77434 | -98.59403 | 33290 ft | 373 kts | 283° |
| 2026-04-20 01:46 | 37.77937 | -98.62607 | 33777 ft | 371 kts | 283° |
| 2026-04-20 01:46 | 37.78438 | -98.65801 | 34265 ft | 370 kts | 283° |
| 2026-04-20 01:46 | 37.78937 | -98.68994 | 34645 ft | 370 kts | 282° |
| 2026-04-20 01:47 | 37.79448 | -98.72178 | 35081 ft | 369 kts | 283° |
| 2026-04-20 01:47 | 37.79971 | -98.75347 | 35491 ft | 368 kts | 283° |
| 2026-04-20 01:47 | 37.80487 | -98.78518 | 35879 ft | 368 kts | 282° |
| 2026-04-20 01:47 | 37.80998 | -98.81685 | 36238 ft | 368 kts | 282° |
| 2026-04-20 01:48 | 37.81503 | -98.84849 | 36638 ft | 366 kts | 282° |
| 2026-04-20 01:48 | 37.82011 | -98.88043 | 37002 ft | 365 kts | 282° |
| 2026-04-20 01:48 | 37.82509 | -98.91195 | 37335 ft | 365 kts | 282° |
| 2026-04-20 01:48 | 37.83005 | -98.94346 | 37617 ft | 366 kts | 282° |
| 2026-04-20 01:49 | 37.83501 | -98.97505 | 37933 ft | 366 kts | 282° |
| 2026-04-20 01:49 | 37.83995 | -99.00660 | 38162 ft | 367 kts | 281° |
| 2026-04-20 01:49 | 37.84991 | -99.07050 | 38174 ft | 371 kts | 281° |
| 2026-04-20 01:50 | 37.85980 | -99.13425 | 38162 ft | 368 kts | 281° |
| 2026-04-20 01:50 | 37.86962 | -99.19782 | 38149 ft | 368 kts | 281° |
| 2026-04-20 01:51 | 37.87943 | -99.26154 | 38141 ft | 369 kts | 281° |
| 2026-04-20 01:51 | 37.88920 | -99.32527 | 38140 ft | 369 kts | 281° |
| 2026-04-20 01:52 | 37.89896 | -99.38912 | 38139 ft | 370 kts | 281° |
| 2026-04-20 01:52 | 37.90867 | -99.45297 | 38138 ft | 369 kts | 281° |
| 2026-04-20 01:53 | 37.91835 | -99.51682 | 38138 ft | 369 kts | 281° |
| 2026-04-20 01:53 | 37.92801 | -99.58075 | 38139 ft | 370 kts | 281° |
| 2026-04-20 01:54 | 37.93607 | -99.63433 | 38139 ft | 370 kts | 281° |
| 2026-04-20 01:54 | 37.94566 | -99.69830 | 38139 ft | 369 kts | 281° |
| 2026-04-20 01:55 | 37.95522 | -99.76229 | 38138 ft | 370 kts | 281° |
| 2026-04-20 01:55 | 37.96475 | -99.82641 | 38139 ft | 370 kts | 281° |
| 2026-04-20 01:56 | 37.97426 | -99.89052 | 38140 ft | 370 kts | 280° |
| 2026-04-20 01:56 | 37.98372 | -99.95465 | 38147 ft | 370 kts | 280° |
| 2026-04-20 01:57 | 37.99315 | -100.01875 | 38143 ft | 370 kts | 280° |
| 2026-04-20 01:57 | 38.00255 | -100.08289 | 38140 ft | 370 kts | 280° |
| 2026-04-20 01:58 | 38.01190 | -100.14703 | 38138 ft | 370 kts | 280° |
| 2026-04-20 01:58 | 38.02128 | -100.21163 | 38135 ft | 370 kts | 280° |
| 2026-04-20 01:59 | 38.03057 | -100.27575 | 38131 ft | 370 kts | 280° |
| 2026-04-20 01:59 | 38.03981 | -100.33993 | 38127 ft | 370 kts | 280° |
| 2026-04-20 02:00 | 38.04903 | -100.40412 | 38124 ft | 370 kts | 280° |
| 2026-04-20 02:00 | 38.05820 | -100.46833 | 38120 ft | 370 kts | 280° |
| 2026-04-20 02:01 | 38.06735 | -100.53258 | 38118 ft | 370 kts | 280° |
| 2026-04-20 02:01 | 38.07654 | -100.59734 | 38117 ft | 378 kts | 280° |
| 2026-04-20 02:02 | 38.08595 | -100.66398 | 38116 ft | 389 kts | 280° |
| 2026-04-20 02:02 | 38.09554 | -100.73225 | 38117 ft | 395 kts | 280° |
| 2026-04-20 02:03 | 38.10513 | -100.80069 | 38120 ft | 393 kts | 280° |
| 2026-04-20 02:03 | 38.11466 | -100.86912 | 38123 ft | 394 kts | 280° |
| 2026-04-20 02:04 | 38.12418 | -100.93771 | 38125 ft | 394 kts | 280° |
| 2026-04-20 02:04 | 38.13372 | -101.00679 | 38129 ft | 394 kts | 280° |
| 2026-04-20 02:05 | 38.14342 | -101.07537 | 38132 ft | 395 kts | 281° |
| 2026-04-20 02:05 | 38.15293 | -101.14407 | 38133 ft | 395 kts | 280° |
| 2026-04-20 02:06 | 38.16225 | -101.21300 | 38134 ft | 396 kts | 280° |
| 2026-04-20 02:06 | 38.17149 | -101.28198 | 38137 ft | 396 kts | 280° |
| 2026-04-20 02:07 | 38.18071 | -101.35100 | 38133 ft | 396 kts | 280° |
| 2026-04-20 02:07 | 38.19176 | -101.41970 | 38128 ft | 398 kts | 287° |
| 2026-04-20 02:08 | 38.21514 | -101.48344 | 38124 ft | 400 kts | 297° |
| 2026-04-20 02:08 | 38.24402 | -101.54402 | 38121 ft | 401 kts | 299° |
| 2026-04-20 02:09 | 38.27363 | -101.60409 | 38119 ft | 401 kts | 299° |
| 2026-04-20 02:09 | 38.30360 | -101.66459 | 38118 ft | 401 kts | 299° |
| 2026-04-20 02:10 | 38.33337 | -101.72465 | 38118 ft | 401 kts | 299° |
| 2026-04-20 02:10 | 38.36316 | -101.78479 | 38114 ft | 401 kts | 299° |
| 2026-04-20 02:11 | 38.39317 | -101.84480 | 38111 ft | 401 kts | 300° |
| 2026-04-20 02:11 | 38.42337 | -101.90465 | 38111 ft | 401 kts | 300° |
| 2026-04-20 02:12 | 38.45312 | -101.96467 | 38110 ft | 397 kts | 299° |
| 2026-04-20 02:12 | 38.48216 | -102.02367 | 38108 ft | 390 kts | 299° |
| 2026-04-20 02:13 | 38.51089 | -102.08223 | 38110 ft | 390 kts | 299° |
| 2026-04-20 02:13 | 38.53970 | -102.14102 | 38111 ft | 390 kts | 299° |
| 2026-04-20 02:14 | 38.56846 | -102.19971 | 38113 ft | 390 kts | 299° |
| 2026-04-20 02:14 | 38.59711 | -102.25848 | 38114 ft | 390 kts | 299° |
| 2026-04-20 02:15 | 38.62567 | -102.31732 | 38118 ft | 389 kts | 299° |
| 2026-04-20 02:15 | 38.65416 | -102.37618 | 38121 ft | 389 kts | 299° |
| 2026-04-20 02:16 | 38.68278 | -102.43542 | 38123 ft | 389 kts | 299° |
| 2026-04-20 02:16 | 38.71123 | -102.49439 | 38126 ft | 390 kts | 299° |
| 2026-04-20 02:17 | 38.73967 | -102.55341 | 38127 ft | 389 kts | 300° |
| 2026-04-20 02:17 | 38.76830 | -102.61225 | 38129 ft | 389 kts | 300° |
| 2026-04-20 02:18 | 38.79708 | -102.67098 | 38131 ft | 389 kts | 300° |
| 2026-04-20 02:18 | 38.82554 | -102.72989 | 38133 ft | 389 kts | 300° |
| 2026-04-20 02:19 | 38.85381 | -102.78896 | 38134 ft | 388 kts | 300° |
| 2026-04-20 02:19 | 38.88200 | -102.84805 | 38136 ft | 388 kts | 300° |
| 2026-04-20 02:20 | 38.91016 | -102.90715 | 38137 ft | 388 kts | 300° |
| 2026-04-20 02:20 | 38.93812 | -102.96587 | 37804 ft | 380 kts | 300° |
| 2026-04-20 02:21 | 38.96602 | -103.02392 | 36200 ft | 387 kts | 301° |
| 2026-04-20 02:21 | 38.98039 | -103.05343 | 35321 ft | 392 kts | 301° |
| 2026-04-20 02:21 | 38.99504 | -103.08371 | 34427 ft | 396 kts | 301° |
| 2026-04-20 02:22 | 39.00960 | -103.11389 | 33544 ft | 399 kts | 301° |
| 2026-04-20 02:22 | 39.02428 | -103.14436 | 32612 ft | 403 kts | 301° |
| 2026-04-20 02:22 | 39.03905 | -103.17500 | 31873 ft | 402 kts | 301° |
| 2026-04-20 02:22 | 39.05369 | -103.20540 | 31248 ft | 398 kts | 301° |
| 2026-04-20 02:23 | 39.06815 | -103.23551 | 30627 ft | 394 kts | 301° |
| 2026-04-20 02:23 | 39.08242 | -103.26547 | 29998 ft | 391 kts | 301° |
| 2026-04-20 02:23 | 39.09650 | -103.29520 | 29374 ft | 387 kts | 301° |
| 2026-04-20 02:23 | 39.11045 | -103.32471 | 28732 ft | 385 kts | 301° |
| 2026-04-20 02:24 | 39.12427 | -103.35402 | 28097 ft | 382 kts | 301° |
| 2026-04-20 02:24 | 39.13800 | -103.38318 | 27459 ft | 379 kts | 301° |
| 2026-04-20 02:24 | 39.15157 | -103.41200 | 27032 ft | 372 kts | 301° |
| 2026-04-20 02:24 | 39.16035 | -103.43065 | 27082 ft | 366 kts | 301° |
| 2026-04-20 02:25 | 39.17361 | -103.45884 | 26826 ft | 368 kts | 301° |
| 2026-04-20 02:25 | 39.18684 | -103.48692 | 26292 ft | 365 kts | 301° |
| 2026-04-20 02:25 | 39.19995 | -103.51484 | 25731 ft | 362 kts | 301° |
| 2026-04-20 02:25 | 39.21305 | -103.54295 | 25164 ft | 359 kts | 302° |
| 2026-04-20 02:26 | 39.22608 | -103.57034 | 24605 ft | 357 kts | 302° |
| 2026-04-20 02:26 | 39.23875 | -103.59721 | 24056 ft | 354 kts | 302° |
| 2026-04-20 02:26 | 39.25160 | -103.62462 | 23497 ft | 351 kts | 302° |
| 2026-04-20 02:26 | 39.26419 | -103.65150 | 22948 ft | 349 kts | 301° |
| 2026-04-20 02:27 | 39.27667 | -103.67815 | 22405 ft | 346 kts | 301° |
| 2026-04-20 02:27 | 39.28904 | -103.70460 | 21866 ft | 343 kts | 302° |
| 2026-04-20 02:27 | 39.30211 | -103.73022 | 21330 ft | 340 kts | 304° |
| 2026-04-20 02:27 | 39.31572 | -103.75507 | 20799 ft | 337 kts | 305° |
| 2026-04-20 02:28 | 39.32915 | -103.77976 | 20273 ft | 335 kts | 304° |
| 2026-04-20 02:28 | 39.34234 | -103.80442 | 19750 ft | 332 kts | 303° |
| 2026-04-20 02:28 | 39.35535 | -103.82891 | 19231 ft | 330 kts | 303° |
| 2026-04-20 02:28 | 39.36819 | -103.85329 | 18713 ft | 327 kts | 303° |
| 2026-04-20 02:29 | 39.38094 | -103.87751 | 18196 ft | 325 kts | 303° |
| 2026-04-20 02:29 | 39.39357 | -103.90154 | 17682 ft | 322 kts | 303° |
| 2026-04-20 02:29 | 39.40611 | -103.92544 | 17194 ft | 319 kts | 303° |
| 2026-04-20 02:29 | 39.41839 | -103.94882 | 16992 ft | 308 kts | 303° |
| 2026-04-20 02:30 | 39.43007 | -103.97120 | 16901 ft | 293 kts | 301° |
| 2026-04-20 02:30 | 39.43805 | -103.99466 | 16801 ft | 280 kts | 284° |
| 2026-04-20 02:30 | 39.44043 | -104.01942 | 16419 ft | 278 kts | 273° |
| 2026-04-20 02:30 | 39.44046 | -104.04447 | 15991 ft | 279 kts | 270° |
| 2026-04-20 02:31 | 39.43960 | -104.06950 | 15571 ft | 278 kts | 268° |
| 2026-04-20 02:31 | 39.43856 | -104.09451 | 15144 ft | 278 kts | 268° |
| 2026-04-20 02:31 | 39.43758 | -104.11947 | 14720 ft | 278 kts | 268° |
| 2026-04-20 02:31 | 39.43663 | -104.14440 | 14298 ft | 278 kts | 268° |
| 2026-04-20 02:32 | 39.43570 | -104.16937 | 13871 ft | 278 kts | 268° |
| 2026-04-20 02:32 | 39.43477 | -104.19426 | 13443 ft | 277 kts | 268° |
| 2026-04-20 02:32 | 39.43391 | -104.21905 | 13172 ft | 271 kts | 268° |
| 2026-04-20 02:32 | 39.43301 | -104.24312 | 13105 ft | 258 kts | 268° |
| 2026-04-20 02:33 | 39.43219 | -104.26525 | 13055 ft | 253 kts | 268° |
| 2026-04-20 02:33 | 39.43132 | -104.28873 | 12930 ft | 254 kts | 268° |
| 2026-04-20 02:33 | 39.43049 | -104.31159 | 12588 ft | 253 kts | 267° |
| 2026-04-20 02:33 | 39.42966 | -104.33421 | 12293 ft | 250 kts | 267° |
| 2026-04-20 02:34 | 39.42887 | -104.35656 | 12011 ft | 247 kts | 267° |
| 2026-04-20 02:34 | 39.42806 | -104.37862 | 11729 ft | 244 kts | 267° |
| 2026-04-20 02:34 | 39.42725 | -104.40041 | 11454 ft | 241 kts | 267° |
| 2026-04-20 02:34 | 39.42644 | -104.42207 | 11185 ft | 241 kts | 267° |
| 2026-04-20 02:35 | 39.42551 | -104.44376 | 10975 ft | 244 kts | 266° |
| 2026-04-20 02:35 | 39.42476 | -104.46562 | 10700 ft | 243 kts | 268° |
| 2026-04-20 02:35 | 39.42409 | -104.48748 | 10437 ft | 244 kts | 268° |
| 2026-04-20 02:35 | 39.42439 | -104.50941 | 10175 ft | 245 kts | 278° |
| 2026-04-20 02:36 | 39.42963 | -104.53029 | 9961 ft | 247 kts | 297° |
| 2026-04-20 02:36 | 39.43892 | -104.54899 | 9660 ft | 247 kts | 304° |
| 2026-04-20 02:36 | 39.44920 | -104.56682 | 9386 ft | 247 kts | 307° |
| 2026-04-20 02:36 | 39.45993 | -104.58422 | 9127 ft | 247 kts | 309° |
| 2026-04-20 02:37 | 39.47115 | -104.60132 | 9056 ft | 246 kts | 311° |
| 2026-04-20 02:37 | 39.48283 | -104.61743 | 9051 ft | 246 kts | 314° |
| 2026-04-20 02:37 | 39.49627 | -104.63114 | 9039 ft | 247 kts | 331° |
| 2026-04-20 02:37 | 39.51214 | -104.63977 | 9051 ft | 248 kts | 342° |
| 2026-04-20 02:38 | 39.52885 | -104.64526 | 9042 ft | 248 kts | 351° |
| 2026-04-20 02:38 | 39.54600 | -104.64657 | 9042 ft | 247 kts | 360° |
| 2026-04-20 02:38 | 39.56319 | -104.64621 | 9035 ft | 247 kts | 2° |
| 2026-04-20 02:38 | 39.58039 | -104.64529 | 9028 ft | 247 kts | 2° |
| 2026-04-20 02:39 | 39.59758 | -104.64471 | 9021 ft | 247 kts | 1° |
| 2026-04-20 02:39 | 39.61475 | -104.64433 | 9016 ft | 247 kts | 1° |
| 2026-04-20 02:39 | 39.63186 | -104.64405 | 9011 ft | 244 kts | 1° |
| 2026-04-20 02:39 | 39.64861 | -104.64383 | 8908 ft | 236 kts | 1° |
| 2026-04-20 02:40 | 39.66497 | -104.64362 | 8647 ft | 234 kts | 1° |
| 2026-04-20 02:40 | 39.68117 | -104.64343 | 8357 ft | 230 kts | 1° |
| 2026-04-20 02:40 | 39.69707 | -104.64325 | 8042 ft | 228 kts | 1° |
| 2026-04-20 02:40 | 39.71276 | -104.64306 | 7765 ft | 222 kts | 1° |
| 2026-04-20 02:41 | 39.72791 | -104.64289 | 7466 ft | 214 kts | 1° |
| 2026-04-20 02:41 | 39.74245 | -104.64272 | 7189 ft | 202 kts | 2° |
| 2026-04-20 02:41 | 39.75619 | -104.64257 | 6915 ft | 194 kts | 2° |
| 2026-04-20 02:41 | 39.76959 | -104.64240 | 6672 ft | 188 kts | 3° |
| 2026-04-20 02:42 | 39.78282 | -104.64225 | 6416 ft | 190 kts | 3° |
| 2026-04-20 02:42 | 39.79573 | -104.64210 | 6170 ft | 178 kts | 3° |
| 2026-04-20 02:42 | 39.80758 | -104.64197 | 5913 ft | 162 kts | 3° |
| 2026-04-20 02:42 | 39.81842 | -104.64184 | 5712 ft | 149 kts | 3° |
| 2026-04-20 02:43 | 39.82850 | -104.64175 | 5516 ft | 141 kts | 3° |
| 2026-04-20 02:43 | 39.83784 | -104.64170 | 5442 ft | 124 kts | 4° |
| 2026-04-20 02:43 | 39.84569 | -104.64151 | 5439 ft | 92 kts | 2° |
| 2026-04-20 02:43 | 39.85013 | -104.64149 | 5439 ft | 42 kts | 356° |
| 2026-04-20 02:44 | 39.85253 | -104.64257 | 5439 ft | 34 kts | 330° |
| 2026-04-20 02:44 | 39.85449 | -104.64355 | 5439 ft | 28 kts | 1° |
| 2026-04-20 02:44 | 39.85616 | -104.64350 | 5439 ft | 20 kts | 357° |
| 2026-04-20 02:44 | 39.85670 | -104.64493 | 5439 ft | 20 kts | 270° |
| 2026-04-20 02:45 | 39.85670 | -104.64672 | 5439 ft | 21 kts | 270° |
| 2026-04-20 02:45 | 39.85672 | -104.64871 | 5439 ft | 22 kts | 270° |
| 2026-04-20 02:45 | 39.85673 | -104.65072 | 5439 ft | 23 kts | 270° |
| 2026-04-20 02:45 | 39.85675 | -104.65287 | 5439 ft | 25 kts | 270° |
| 2026-04-20 02:46 | 39.85676 | -104.65515 | 5439 ft | 26 kts | 270° |
| 2026-04-20 02:46 | 39.85678 | -104.65751 | 5439 ft | 25 kts | 270° |
| 2026-04-20 02:46 | 39.85680 | -104.65966 | 5439 ft | 24 kts | 270° |
| 2026-04-20 02:46 | 39.85681 | -104.66186 | 5439 ft | 25 kts | 270° |
| 2026-04-20 02:47 | 39.85683 | -104.66383 | 5439 ft | 20 kts | 270° |
| 2026-04-20 02:47 | 39.85668 | -104.66559 | 5439 ft | 19 kts | 252° |
| 2026-04-20 02:47 | 39.85665 | -104.66729 | 5439 ft | 18 kts | 270° |
| 2026-04-20 02:47 | 39.85667 | -104.66891 | 5439 ft | 17 kts | 270° |
| 2026-04-20 02:48 | 39.85678 | -104.66994 | 5439 ft | 8 kts | 320° |
| 2026-04-20 02:48 | 39.85731 | -104.66996 | 5439 ft | 8 kts | 2° |
| 2026-04-20 02:48 | 39.85782 | -104.66995 | 5439 ft | 5 kts | 360° |
| 2026-04-20 02:48 | 39.85799 | -104.66995 | 5439 ft | 1 kts | 359° |
| 2026-04-20 02:49 | 39.85804 | -104.66995 | 5439 ft | 0 kts | 359° |